createdAt,value
2018-04-23T00:00:49.152Z,60.50
2018-04-23T00:03:17.482Z,59.70
2018-04-23T00:05:45.164Z,61.20
2018-04-23T00:08:13.015Z,60.10
2018-04-23T00:10:40.520Z,60.00
2018-04-23T00:13:10.419Z,60.70
2018-04-23T00:15:37.905Z,60.70
2018-04-23T00:18:05.413Z,60.30
2018-04-23T00:20:32.936Z,61.00
2018-04-23T00:23:01.204Z,59.90
2018-04-23T00:25:28.737Z,59.80
2018-04-23T00:27:56.268Z,59.10
2018-04-23T00:30:24.120Z,58.40
2018-04-23T00:32:51.957Z,58.90
2018-04-23T00:35:20.273Z,59.00
2018-04-23T00:37:47.909Z,59.00
2018-04-23T00:40:15.768Z,58.80
2018-04-23T00:42:43.453Z,59.20
2018-04-23T00:45:11.716Z,60.10
2018-04-23T00:47:39.975Z,59.40
2018-04-23T00:50:07.471Z,59.30
2018-04-23T00:52:35.510Z,59.50
2018-04-23T00:55:04.852Z,59.40
2018-04-23T00:57:33.908Z,59.70
2018-04-23T01:00:02.177Z,60.70
2018-04-23T01:02:29.725Z,60.60
2018-04-23T01:04:57.929Z,60.00
2018-04-23T01:07:25.514Z,60.30
2018-04-23T01:09:53.681Z,60.50
2018-04-23T01:12:21.213Z,59.80
2018-04-23T01:14:48.701Z,60.00
2018-04-23T01:17:16.223Z,59.90
2018-04-23T01:19:44.815Z,59.40
2018-04-23T01:22:12.529Z,59.40
2018-04-23T01:24:40.960Z,59.40
2018-04-23T01:27:08.794Z,60.00
2018-04-23T01:29:36.897Z,59.50
2018-04-23T01:32:04.571Z,59.50
2018-04-23T01:34:32.073Z,59.30
2018-04-23T01:36:59.564Z,59.40
2018-04-23T01:39:27.851Z,60.00
2018-04-23T01:41:56.679Z,59.90
2018-04-23T01:44:24.179Z,59.90
2018-04-23T01:46:52.444Z,60.00
2018-04-23T01:49:19.940Z,59.90
2018-04-23T01:51:47.717Z,60.10
2018-04-23T01:54:15.220Z,59.90
2018-04-23T01:56:42.810Z,60.10
2018-04-23T01:59:10.727Z,60.70
2018-04-23T02:01:38.544Z,60.70
2018-04-23T02:04:06.462Z,60.50
2018-04-23T02:06:34.080Z,60.60
2018-04-23T02:09:01.760Z,60.40
2018-04-23T02:11:29.567Z,61.30
2018-04-23T02:13:57.257Z,61.40
2018-04-23T02:16:25.962Z,62.50
2018-04-23T02:18:53.739Z,61.30
2018-04-23T02:21:22.312Z,61.70
2018-04-23T02:23:49.816Z,62.00
2018-04-23T02:26:17.654Z,62.30
2018-04-23T02:28:45.964Z,62.00
2018-04-23T02:31:13.912Z,62.60
2018-04-23T02:33:41.533Z,62.90
2018-04-23T02:36:09.433Z,62.30
2018-04-23T02:38:37.558Z,62.00
2018-04-23T02:41:06.575Z,63.10
2018-04-23T02:43:34.067Z,63.00
2018-04-23T02:46:01.569Z,62.80
2018-04-23T02:48:29.948Z,62.90
2018-04-23T02:50:57.607Z,62.90
2018-04-23T02:53:25.497Z,62.90
2018-04-23T02:55:53.677Z,63.40
2018-04-23T02:58:21.859Z,63.60
2018-04-23T03:00:50.116Z,63.50
2018-04-23T03:03:17.628Z,63.50
2018-04-23T03:05:45.232Z,63.60
2018-04-23T03:08:13.081Z,63.80
2018-04-23T03:10:40.584Z,63.60
2018-04-23T03:13:08.646Z,63.50
2018-04-23T03:15:36.161Z,63.20
2018-04-23T03:18:03.777Z,63.20
2018-04-23T03:20:31.269Z,62.60
2018-04-23T03:22:59.280Z,62.20
2018-04-23T03:25:26.803Z,62.50
2018-04-23T03:27:54.806Z,62.70
2018-04-23T03:30:22.618Z,63.00
2018-04-23T03:32:50.213Z,63.40
2018-04-23T03:35:19.109Z,63.20
2018-04-23T03:37:47.401Z,62.90
2018-04-23T03:40:14.885Z,62.30
2018-04-23T03:42:42.380Z,62.60
2018-04-23T03:45:10.472Z,62.50
2018-04-23T03:47:37.966Z,63.00
2018-04-23T03:50:06.639Z,62.00
2018-04-23T03:52:34.147Z,62.50
2018-04-23T03:55:01.750Z,62.50
2018-04-23T03:57:29.423Z,62.50
2018-04-23T03:59:56.921Z,62.80
2018-04-23T04:02:24.425Z,62.80
2018-04-23T04:04:51.958Z,63.00
2018-04-23T04:07:19.436Z,62.80
2018-04-23T04:09:47.305Z,62.20
2018-04-23T04:12:26.924Z,61.90
2018-04-23T04:15:19.395Z,62.20
2018-04-23T04:20:55.366Z,62.20
2018-04-23T04:23:23.752Z,62.80
2018-04-23T04:25:53.081Z,62.80
2018-04-23T04:28:20.697Z,63.30
2018-04-23T04:30:48.182Z,62.70
2018-04-23T04:33:16.228Z,62.30
2018-04-23T04:35:44.569Z,62.40
2018-04-23T04:38:12.378Z,62.40
2018-04-23T04:40:39.886Z,61.80
2018-04-23T04:43:07.693Z,62.70
2018-04-23T04:45:35.232Z,61.80
2018-04-23T04:48:03.232Z,62.20
2018-04-23T04:50:30.737Z,61.90
2018-04-23T04:52:58.266Z,62.80
2018-04-23T04:55:25.798Z,61.40
2018-04-23T04:57:53.606Z,61.50
2018-04-23T05:00:21.246Z,61.30
2018-04-23T05:02:49.959Z,61.50
2018-04-23T05:05:17.537Z,61.70
2018-04-23T05:07:46.352Z,61.10
2018-04-23T05:10:14.240Z,61.60
2018-04-23T05:12:42.054Z,62.10
2018-04-23T05:15:09.716Z,61.30
2018-04-23T05:17:37.934Z,61.30
2018-04-23T05:20:05.453Z,63.40
2018-04-23T05:22:33.251Z,60.50
2018-04-23T05:25:01.009Z,59.60
2018-04-23T05:27:30.226Z,60.00
2018-04-23T05:29:58.438Z,59.80
2018-04-23T05:32:26.259Z,59.50
2018-04-23T05:34:53.768Z,58.50
2018-04-23T05:37:21.378Z,58.00
2018-04-23T05:39:49.594Z,57.40
2018-04-23T05:42:17.257Z,59.10
2018-04-23T05:44:44.754Z,58.70
2018-04-23T05:47:12.571Z,58.10
2018-04-23T05:49:40.164Z,58.30
2018-04-23T05:52:07.953Z,58.00
2018-04-23T05:54:36.217Z,57.40
2018-04-23T05:57:04.007Z,57.20
2018-04-23T05:59:31.826Z,57.30
2018-04-23T06:02:00.351Z,57.20
2018-04-23T06:04:27.957Z,57.30
2018-04-23T06:06:55.754Z,57.30
2018-04-23T06:09:23.249Z,57.30
2018-04-23T06:11:51.408Z,58.00
2018-04-23T06:14:19.731Z,59.00
2018-04-23T06:16:47.220Z,57.00
2018-04-23T06:19:16.175Z,56.00
2018-04-23T06:21:44.227Z,55.90
2018-04-23T06:24:11.817Z,55.80
2018-04-23T06:26:40.196Z,56.10
2018-04-23T06:29:07.960Z,55.30
2018-04-23T06:31:35.445Z,55.90
2018-04-23T06:34:04.675Z,54.40
2018-04-23T06:36:32.164Z,54.40
2018-04-23T06:39:00.069Z,54.00
2018-04-23T06:41:28.312Z,53.40
2018-04-23T06:43:56.568Z,53.20
2018-04-23T06:46:24.096Z,53.40
2018-04-23T06:48:52.356Z,54.20
2018-04-23T06:51:19.897Z,54.20
2018-04-23T06:53:47.499Z,52.80
2018-04-23T06:56:15.232Z,52.40
2018-04-23T06:58:43.485Z,52.40
2018-04-23T07:01:11.204Z,52.40
2018-04-23T07:03:38.726Z,50.90
2018-04-23T07:06:07.362Z,50.40
2018-04-23T07:08:35.077Z,50.00
2018-04-23T07:11:03.391Z,49.80
2018-04-23T07:13:31.737Z,48.40
2018-04-23T07:16:00.345Z,47.50
2018-04-23T07:18:28.231Z,47.50
2018-04-23T07:20:56.139Z,48.40
2018-04-23T07:23:25.222Z,46.00
2018-04-23T07:25:52.838Z,45.90
2018-04-23T07:28:20.616Z,46.00
2018-04-23T07:30:48.133Z,46.20
2018-04-23T07:33:16.892Z,46.10
2018-04-23T07:35:44.407Z,45.40
2018-04-23T07:38:11.947Z,46.00
2018-04-23T07:40:40.920Z,46.40
2018-04-23T07:43:08.504Z,46.80
2018-04-23T07:45:36.240Z,48.60
2018-04-23T07:48:03.967Z,48.90
2018-04-23T07:50:31.702Z,49.40
2018-04-23T07:52:59.961Z,48.60
2018-04-23T07:55:27.495Z,47.80
2018-04-23T07:57:56.612Z,48.20
2018-04-23T08:00:24.287Z,47.60
2018-04-23T08:02:52.472Z,47.60
2018-04-23T08:05:20.187Z,47.30
2018-04-23T08:07:47.908Z,48.70
2018-04-23T08:10:15.788Z,46.00
2018-04-23T08:12:43.689Z,45.50
2018-04-23T08:15:12.808Z,47.10
2018-04-23T08:17:40.594Z,45.00
2018-04-23T08:20:09.061Z,46.40
2018-04-23T08:22:37.640Z,45.10
2018-04-23T08:25:05.894Z,45.00
2018-04-23T08:27:34.607Z,44.40
2018-04-23T08:30:02.270Z,44.00
2018-04-23T08:32:30.335Z,42.00
2018-04-23T08:34:57.992Z,41.80
2018-04-23T08:37:25.718Z,39.20
2018-04-23T08:39:53.230Z,39.50
2018-04-23T08:42:21.189Z,38.10
2018-04-23T08:44:48.763Z,40.10
2018-04-23T08:47:17.219Z,38.10
2018-04-23T08:49:44.835Z,37.90
2018-04-23T08:52:13.385Z,37.20
2018-04-23T08:54:40.914Z,36.00
2018-04-23T08:57:08.572Z,35.40
2018-04-23T08:59:37.782Z,33.00
2018-04-23T09:02:05.268Z,32.90
2018-04-23T09:04:32.859Z,32.90
2018-04-23T09:07:00.374Z,30.60
2018-04-23T09:09:29.116Z,29.00
2018-04-23T09:11:57.051Z,28.70
2018-04-23T09:14:25.521Z,28.70
2018-04-23T09:16:53.473Z,28.10
2018-04-23T09:19:21.011Z,27.90
2018-04-23T09:21:50.238Z,29.30
2018-04-23T09:24:17.766Z,29.20
2018-04-23T09:26:46.483Z,30.10
2018-04-23T09:29:13.972Z,31.00
2018-04-23T09:31:42.103Z,30.10
2018-04-23T09:34:10.822Z,30.00
2018-04-23T09:36:38.679Z,29.00
2018-04-23T09:39:07.336Z,29.80
2018-04-23T09:41:34.851Z,30.00
2018-04-23T09:44:02.625Z,29.90
2018-04-23T09:46:30.128Z,30.50
2018-04-23T09:48:58.002Z,29.60
2018-04-23T09:51:25.587Z,30.60
2018-04-23T09:53:53.428Z,30.40
2018-04-23T09:56:20.923Z,28.40
2018-04-23T09:58:49.571Z,28.90
2018-04-23T10:01:20.885Z,28.50
2018-04-23T10:03:51.548Z,27.30
2018-04-23T10:06:19.191Z,27.30
2018-04-23T10:08:47.688Z,26.00
2018-04-23T10:11:15.226Z,26.30
2018-04-23T10:13:43.809Z,27.90
2018-04-23T10:16:11.998Z,27.70
2018-04-23T10:18:39.790Z,28.50
2018-04-23T10:21:07.453Z,29.70
2018-04-23T10:23:34.960Z,29.70
2018-04-23T10:26:02.686Z,30.70
2018-04-23T10:28:30.439Z,31.10
2018-04-23T10:30:57.939Z,31.70
2018-04-23T10:33:25.444Z,31.60
2018-04-23T10:35:52.988Z,32.70
2018-04-23T10:38:20.701Z,33.60
2018-04-23T10:40:48.244Z,34.70
2018-04-23T13:46:22.583Z,42.10
2018-04-23T13:48:50.109Z,42.20
2018-04-23T13:51:18.905Z,42.80
2018-04-23T13:53:46.451Z,42.80
2018-04-23T13:56:14.766Z,43.30
2018-04-23T13:58:42.258Z,43.20
2018-04-23T14:01:09.745Z,44.40
2018-04-23T14:03:37.264Z,45.90
2018-04-23T14:06:05.693Z,45.50
2018-04-23T14:08:33.495Z,44.30
2018-04-23T14:11:00.998Z,45.30
2018-04-23T14:13:28.498Z,46.00
2018-04-23T14:15:56.416Z,46.50
2018-04-23T14:18:23.926Z,45.70
2018-04-23T14:20:51.770Z,46.30
2018-04-23T14:23:21.141Z,47.90
2018-04-23T14:25:48.679Z,49.60
2018-04-23T14:28:18.833Z,49.20
2018-04-23T14:30:46.707Z,49.40
2018-04-23T14:33:14.397Z,50.10
2018-04-23T14:35:42.585Z,49.30
2018-04-23T14:38:10.078Z,49.60
2018-04-23T14:40:37.581Z,49.50
2018-04-23T14:43:05.141Z,49.30
2018-04-23T14:45:32.632Z,49.40
2018-04-23T14:48:00.146Z,50.00
2018-04-23T14:50:27.692Z,50.10
2018-04-23T14:52:55.191Z,50.80
2018-04-23T14:55:23.047Z,51.30
2018-04-23T14:57:50.542Z,51.30
2018-04-23T15:00:18.364Z,51.40
2018-04-23T15:02:45.930Z,51.80
2018-04-23T15:05:14.291Z,51.90
2018-04-23T15:07:42.170Z,51.60
2018-04-23T15:10:09.669Z,51.50
2018-04-23T15:12:38.517Z,51.50
2018-04-23T15:15:06.067Z,51.70
2018-04-23T15:17:33.567Z,51.30
2018-04-23T15:20:01.077Z,52.00
2018-04-23T15:22:28.672Z,52.20
2018-04-23T15:25:02.714Z,52.30
2018-04-23T15:27:33.145Z,51.70
2018-04-23T15:30:01.999Z,52.80
2018-04-23T15:35:04.874Z,52.70
2018-04-23T15:37:33.219Z,52.70
2018-04-23T15:40:00.718Z,52.90
2018-04-23T15:42:28.345Z,54.00
2018-04-23T15:44:55.848Z,53.80
2018-04-23T15:47:23.859Z,52.90
2018-04-23T15:49:51.909Z,54.40
2018-04-23T15:52:19.974Z,55.70
2018-04-23T15:54:47.513Z,55.70
2018-04-23T15:57:15.230Z,55.90
2018-04-23T15:59:43.140Z,56.60
2018-04-23T16:02:10.629Z,56.70
2018-04-23T16:04:38.160Z,57.60
2018-04-23T16:07:06.013Z,57.90
2018-04-23T16:09:34.834Z,57.40
2018-04-23T16:12:02.702Z,57.40
2018-04-23T16:14:30.201Z,57.40
2018-04-23T16:16:57.828Z,57.70
2018-04-23T16:19:25.464Z,57.90
2018-04-23T16:21:53.130Z,58.40
2018-04-23T16:24:20.974Z,58.50
2018-04-23T16:26:48.502Z,57.90
2018-04-23T16:29:17.717Z,57.40
2018-04-23T16:31:45.592Z,57.40
2018-04-23T16:34:13.110Z,56.70
2018-04-23T16:36:40.930Z,56.90
2018-04-23T16:39:08.441Z,56.90
2018-04-23T16:41:36.525Z,57.50
2018-04-23T16:44:05.118Z,58.20
2018-04-23T16:46:33.769Z,57.80
2018-04-23T16:49:02.158Z,57.70
2018-04-23T16:51:30.509Z,57.40
2018-04-23T16:53:58.028Z,57.30
2018-04-23T16:56:26.730Z,56.70
2018-04-23T16:58:54.232Z,56.50
2018-04-23T17:01:21.889Z,56.90
2018-04-23T17:03:50.648Z,57.20
2018-04-23T17:06:18.626Z,56.90
2018-04-23T17:08:46.602Z,57.30
2018-04-23T17:11:15.859Z,57.80
2018-04-23T17:13:44.252Z,58.80
2018-04-23T17:16:11.853Z,59.30
2018-04-23T17:18:40.203Z,59.30
2018-04-23T17:21:07.954Z,59.80
2018-04-23T17:23:35.493Z,59.70
2018-04-23T17:26:03.263Z,59.50
2018-04-23T17:28:30.759Z,59.90
2018-04-23T17:30:58.976Z,60.20
2018-04-23T17:33:26.492Z,61.30
2018-04-23T17:35:54.059Z,61.80
2018-04-23T17:38:21.637Z,62.30
2018-04-23T17:40:51.088Z,62.80
2018-04-23T17:43:18.593Z,62.80
2018-04-23T17:45:47.191Z,62.60
2018-04-23T17:48:14.917Z,62.70
2018-04-23T17:50:43.368Z,63.00
2018-04-23T17:53:10.858Z,63.20
2018-04-23T17:55:39.032Z,63.40
2018-04-23T17:58:06.622Z,62.80
2018-04-23T18:00:34.130Z,63.80
2018-04-23T18:03:01.666Z,63.70
2018-04-23T18:05:29.842Z,64.70
2018-04-23T18:07:57.404Z,64.20
2018-04-23T18:10:25.096Z,64.00
2018-04-23T18:12:52.594Z,64.40
2018-04-23T18:15:20.098Z,64.40
2018-04-23T18:17:48.164Z,64.30
2018-04-23T18:20:15.656Z,64.90
2018-04-23T18:22:43.170Z,65.30
2018-04-23T18:25:10.698Z,65.10
2018-04-23T18:27:38.331Z,65.00
2018-04-23T18:30:06.173Z,65.90
2018-04-23T18:32:33.979Z,66.60
2018-04-23T18:35:03.676Z,66.70
2018-04-23T18:37:50.695Z,67.00
2018-04-23T18:40:19.066Z,66.90
2018-04-23T18:42:46.769Z,67.30
2018-04-23T18:45:15.620Z,67.50
2018-04-23T18:47:43.533Z,67.50
2018-04-23T18:50:12.086Z,67.70
2018-04-23T18:52:40.044Z,67.70
2018-04-23T18:55:08.534Z,67.90
2018-04-23T18:57:37.830Z,67.90
2018-04-23T19:00:06.586Z,68.50
2018-04-23T19:02:34.114Z,68.50
2018-04-23T19:05:01.926Z,68.90
2018-04-23T19:07:30.362Z,69.30
2018-04-23T19:09:58.874Z,69.70
2018-04-23T19:12:26.477Z,69.30
2018-04-23T19:14:54.412Z,69.70
2018-04-23T19:17:22.386Z,70.30
2018-04-23T19:19:50.132Z,70.70
2018-04-23T19:22:17.692Z,70.60
2018-04-23T19:24:45.205Z,70.60
2018-04-23T19:27:12.699Z,70.60
2018-04-23T19:29:40.226Z,70.60
2018-04-23T19:32:09.260Z,71.10
2018-04-23T19:34:36.832Z,71.10
2018-04-23T19:37:04.329Z,71.40
2018-04-23T19:39:32.605Z,71.90
2018-04-23T19:42:00.120Z,71.90
2018-04-23T19:44:28.000Z,72.50
2018-04-23T19:46:55.637Z,72.30
2018-04-23T19:49:23.149Z,73.40
2018-04-23T19:51:52.195Z,74.20
2018-04-23T19:54:19.724Z,73.30
2018-04-23T19:56:48.182Z,73.90
2018-04-23T19:59:16.597Z,74.00
2018-04-23T20:01:44.259Z,74.30
2018-04-23T20:04:12.186Z,74.20
2018-04-23T20:06:40.086Z,74.80
2018-04-23T20:09:08.184Z,74.10
2018-04-23T20:11:35.688Z,73.90
2018-04-23T20:14:03.293Z,73.60
2018-04-23T20:16:30.792Z,73.40
2018-04-23T20:18:58.289Z,73.90
2018-04-23T20:21:25.905Z,73.70
2018-04-23T20:23:54.645Z,74.00
2018-04-23T20:26:22.169Z,74.00
2018-04-23T20:28:50.374Z,74.60
2018-04-23T20:31:17.943Z,74.30
2018-04-23T20:33:45.654Z,74.30
2018-04-23T20:36:13.189Z,74.50
2018-04-23T20:38:41.215Z,74.90
2018-04-23T20:41:09.722Z,74.60
2018-04-23T20:43:37.235Z,74.60
2018-04-23T20:46:05.137Z,74.80
2018-04-23T20:48:32.632Z,75.20
2018-04-23T20:51:01.001Z,74.90
2018-04-23T20:53:28.497Z,75.30
2018-04-23T20:55:56.393Z,75.20
2018-04-23T20:58:23.975Z,75.90
2018-04-23T21:00:51.807Z,75.30
2018-04-23T21:03:20.206Z,76.10
2018-04-23T21:05:48.877Z,76.10
2018-04-23T21:08:16.357Z,76.50
2018-04-23T21:10:43.863Z,76.80
2018-04-23T21:13:11.640Z,77.30
2018-04-23T21:15:39.932Z,78.20
2018-04-23T21:18:07.708Z,78.10
2018-04-23T21:20:35.204Z,78.10
2018-04-23T21:23:03.137Z,78.10
2018-04-23T21:25:30.688Z,78.40
2018-04-23T21:27:58.459Z,78.60
2018-04-23T21:30:25.970Z,78.90
2018-04-23T21:32:53.492Z,78.90
2018-04-23T21:35:21.097Z,79.20
2018-04-23T21:37:49.214Z,79.50
2018-04-23T21:40:16.697Z,79.70
2018-04-23T21:42:44.214Z,79.80
2018-04-23T21:45:12.270Z,79.80
2018-04-23T21:47:39.799Z,79.80
2018-04-23T21:50:08.332Z,79.30
2018-04-23T21:52:36.227Z,79.80
2018-04-23T21:55:04.108Z,79.70
2018-04-23T21:57:31.900Z,79.40
2018-04-23T22:00:00.205Z,79.70
2018-04-23T22:02:27.690Z,79.70
2018-04-23T22:04:55.315Z,79.10
2018-04-23T22:07:22.844Z,79.10
2018-04-23T22:09:51.561Z,78.90
2018-04-23T22:12:19.212Z,78.60
2018-04-23T22:14:46.747Z,77.80
2018-04-23T22:17:14.565Z,78.00
2018-04-23T22:19:42.064Z,77.60
2018-04-23T22:22:09.549Z,78.00
2018-04-23T22:24:37.948Z,79.60
2018-04-23T22:27:06.238Z,79.50
2018-04-23T22:29:33.736Z,80.80
2018-04-23T22:32:01.946Z,80.90
2018-04-23T22:34:29.804Z,81.40
2018-04-23T22:36:57.357Z,82.50
2018-04-23T22:39:25.764Z,82.80
2018-04-23T22:41:53.819Z,82.60
2018-04-23T22:44:21.309Z,83.80
2018-04-23T22:46:49.174Z,83.10
2018-04-23T22:49:16.657Z,83.40
2018-04-23T22:51:44.603Z,85.20
2018-04-23T22:54:12.741Z,84.50
2018-04-23T22:56:40.424Z,84.90
2018-04-23T22:59:08.088Z,84.50
2018-04-23T23:01:35.577Z,84.70
2018-04-23T23:04:03.408Z,85.00
2018-04-23T23:06:30.982Z,85.30
2018-04-23T23:08:58.466Z,84.80
2018-04-23T23:11:26.176Z,86.10
2018-04-23T23:13:54.345Z,85.90
2018-04-23T23:16:22.295Z,85.40
2018-04-23T23:18:49.973Z,85.40
2018-04-23T23:21:17.855Z,85.40
2018-04-23T23:23:45.829Z,86.40
2018-04-23T23:26:13.327Z,86.80
2018-04-23T23:28:41.551Z,87.70
2018-04-23T23:31:09.036Z,88.70
2018-04-23T23:33:37.739Z,89.80
2018-04-23T23:36:05.307Z,90.70
2018-04-23T23:38:33.040Z,91.40
2018-04-23T23:41:00.601Z,91.50
2018-04-23T23:43:28.928Z,91.80
2018-04-23T23:45:56.606Z,91.90
2018-04-23T23:48:24.466Z,92.60
2018-04-23T23:50:52.158Z,92.70
2018-04-23T23:53:19.997Z,92.40
2018-04-23T23:55:47.500Z,92.80
2018-04-23T23:58:15.110Z,93.00
